sensor_id;sensor_type;location;lat;lon;timestamp;P1;durP1;ratioP1;P2;durP2;ratioP2
82147;SDS011;71718;50.480;12.110;2023-09-08T00:01:49;8.60;;;7.07;;
82147;SDS011;71718;50.480;12.110;2023-09-08T00:09:37;9.57;;;6.80;;
82147;SDS011;71718;50.480;12.110;2023-09-08T00:12:04;8.35;;;6.63;;
82147;SDS011;71718;50.480;12.110;2023-09-08T00:14:31;11.07;;;7.05;;
82147;SDS011;71718;50.480;12.110;2023-09-08T00:16:57;11.70;;;7.35;;
82147;SDS011;71718;50.480;12.110;2023-09-08T00:19:24;8.10;;;7.15;;
82147;SDS011;71718;50.480;12.110;2023-09-08T00:21:50;10.05;;;6.72;;
82147;SDS011;71718;50.480;12.110;2023-09-08T00:24:17;8.23;;;6.85;;
82147;SDS011;71718;50.480;12.110;2023-09-08T00:26:44;8.85;;;7.05;;
82147;SDS011;71718;50.480;12.110;2023-09-08T00:29:11;8.32;;;6.50;;
82147;SDS011;71718;50.480;12.110;2023-09-08T00:31:38;9.90;;;6.88;;
82147;SDS011;71718;50.480;12.110;2023-09-08T00:34:04;8.85;;;6.43;;
82147;SDS011;71718;50.480;12.110;2023-09-08T00:36:32;8.85;;;7.28;;
82147;SDS011;71718;50.480;12.110;2023-09-08T00:38:58;7.75;;;6.68;;
82147;SDS011;71718;50.480;12.110;2023-09-08T00:41:25;9.02;;;6.82;;
82147;SDS011;71718;50.480;12.110;2023-09-08T00:43:51;10.13;;;7.10;;
82147;SDS011;71718;50.480;12.110;2023-09-08T00:46:18;8.80;;;6.63;;
82147;SDS011;71718;50.480;12.110;2023-09-08T00:48:45;8.35;;;6.30;;
82147;SDS011;71718;50.480;12.110;2023-09-08T00:51:12;8.18;;;6.78;;
82147;SDS011;71718;50.480;12.110;2023-09-08T00:53:38;9.32;;;6.22;;
82147;SDS011;71718;50.480;12.110;2023-09-08T00:56:05;9.23;;;6.55;;
82147;SDS011;71718;50.480;12.110;2023-09-08T00:58:32;7.97;;;6.60;;
82147;SDS011;71718;50.480;12.110;2023-09-08T01:00:59;10.90;;;7.43;;
82147;SDS011;71718;50.480;12.110;2023-09-08T01:03:26;8.18;;;6.75;;
82147;SDS011;71718;50.480;12.110;2023-09-08T01:05:52;10.30;;;7.00;;
82147;SDS011;71718;50.480;12.110;2023-09-08T01:08:19;9.35;;;7.50;;
82147;SDS011;71718;50.480;12.110;2023-09-08T01:10:46;8.15;;;6.30;;
82147;SDS011;71718;50.480;12.110;2023-09-08T01:13:13;10.13;;;6.60;;
82147;SDS011;71718;50.480;12.110;2023-09-08T01:15:39;8.05;;;6.47;;
82147;SDS011;71718;50.480;12.110;2023-09-08T01:18:06;11.60;;;7.10;;
82147;SDS011;71718;50.480;12.110;2023-09-08T01:25:52;8.70;;;6.47;;
82147;SDS011;71718;50.480;12.110;2023-09-08T01:28:21;6.90;;;6.10;;
82147;SDS011;71718;50.480;12.110;2023-09-08T01:30:48;10.73;;;6.45;;
82147;SDS011;71718;50.480;12.110;2023-09-08T01:33:15;10.07;;;7.03;;
82147;SDS011;71718;50.480;12.110;2023-09-08T01:35:42;7.25;;;6.10;;
82147;SDS011;71718;50.480;12.110;2023-09-08T01:38:09;9.73;;;7.05;;
82147;SDS011;71718;50.480;12.110;2023-09-08T01:40:36;7.00;;;5.57;;
82147;SDS011;71718;50.480;12.110;2023-09-08T01:43:02;10.00;;;7.10;;
82147;SDS011;71718;50.480;12.110;2023-09-08T01:45:29;8.70;;;6.28;;
82147;SDS011;71718;50.480;12.110;2023-09-08T01:47:55;7.70;;;6.82;;
82147;SDS011;71718;50.480;12.110;2023-09-08T01:50:22;8.63;;;6.45;;
82147;SDS011;71718;50.480;12.110;2023-09-08T01:52:48;7.93;;;6.40;;
82147;SDS011;71718;50.480;12.110;2023-09-08T01:55:15;8.23;;;6.65;;
82147;SDS011;71718;50.480;12.110;2023-09-08T01:57:41;8.57;;;6.82;;
82147;SDS011;71718;50.480;12.110;2023-09-08T02:00:09;9.98;;;6.68;;
82147;SDS011;71718;50.480;12.110;2023-09-08T02:02:39;10.25;;;6.95;;
82147;SDS011;71718;50.480;12.110;2023-09-08T02:05:06;10.40;;;7.07;;
82147;SDS011;71718;50.480;12.110;2023-09-08T02:07:33;8.65;;;6.57;;
82147;SDS011;71718;50.480;12.110;2023-09-08T02:09:59;9.50;;;6.55;;
82147;SDS011;71718;50.480;12.110;2023-09-08T02:12:26;9.20;;;6.47;;
82147;SDS011;71718;50.480;12.110;2023-09-08T02:14:53;7.70;;;6.45;;
82147;SDS011;71718;50.480;12.110;2023-09-08T02:17:19;8.45;;;6.63;;
82147;SDS011;71718;50.480;12.110;2023-09-08T02:19:46;9.75;;;7.28;;
82147;SDS011;71718;50.480;12.110;2023-09-08T02:22:12;9.32;;;7.05;;
82147;SDS011;71718;50.480;12.110;2023-09-08T02:24:39;8.35;;;6.45;;
82147;SDS011;71718;50.480;12.110;2023-09-08T02:27:05;14.82;;;6.95;;
82147;SDS011;71718;50.480;12.110;2023-09-08T02:29:32;8.23;;;6.80;;
82147;SDS011;71718;50.480;12.110;2023-09-08T02:31:58;11.93;;;6.53;;
82147;SDS011;71718;50.480;12.110;2023-09-08T02:34:25;7.75;;;6.25;;
82147;SDS011;71718;50.480;12.110;2023-09-08T02:36:51;9.02;;;6.68;;
82147;SDS011;71718;50.480;12.110;2023-09-08T02:39:17;8.00;;;6.65;;
82147;SDS011;71718;50.480;12.110;2023-09-08T02:41:44;9.93;;;6.47;;
82147;SDS011;71718;50.480;12.110;2023-09-08T02:44:11;8.20;;;6.68;;
82147;SDS011;71718;50.480;12.110;2023-09-08T02:46:37;9.45;;;6.78;;
82147;SDS011;71718;50.480;12.110;2023-09-08T02:49:05;7.05;;;6.00;;
82147;SDS011;71718;50.480;12.110;2023-09-08T02:51:32;7.22;;;5.82;;
82147;SDS011;71718;50.480;12.110;2023-09-08T02:53:58;8.63;;;5.90;;
82147;SDS011;71718;50.480;12.110;2023-09-08T02:56:25;7.45;;;6.32;;
82147;SDS011;71718;50.480;12.110;2023-09-08T02:58:51;7.82;;;6.47;;
82147;SDS011;71718;50.480;12.110;2023-09-08T03:01:18;8.40;;;6.25;;
82147;SDS011;71718;50.480;12.110;2023-09-08T03:03:44;7.38;;;5.97;;
82147;SDS011;71718;50.480;12.110;2023-09-08T03:06:11;6.95;;;5.82;;
82147;SDS011;71718;50.480;12.110;2023-09-08T03:08:39;11.80;;;6.18;;
82147;SDS011;71718;50.480;12.110;2023-09-08T03:11:06;7.57;;;6.10;;
82147;SDS011;71718;50.480;12.110;2023-09-08T03:13:32;9.43;;;6.57;;
82147;SDS011;71718;50.480;12.110;2023-09-08T03:16:08;9.68;;;6.85;;
82147;SDS011;71718;50.480;12.110;2023-09-08T03:18:35;8.95;;;6.75;;
82147;SDS011;71718;50.480;12.110;2023-09-08T03:21:03;8.65;;;6.22;;
82147;SDS011;71718;50.480;12.110;2023-09-08T03:23:30;8.23;;;5.88;;
82147;SDS011;71718;50.480;12.110;2023-09-08T03:25:56;8.05;;;6.05;;
82147;SDS011;71718;50.480;12.110;2023-09-08T03:28:23;6.40;;;5.68;;
82147;SDS011;71718;50.480;12.110;2023-09-08T03:30:50;8.48;;;6.10;;
82147;SDS011;71718;50.480;12.110;2023-09-08T03:33:16;9.82;;;6.22;;
82147;SDS011;71718;50.480;12.110;2023-09-08T03:35:43;8.35;;;6.00;;
82147;SDS011;71718;50.480;12.110;2023-09-08T03:38:09;10.50;;;5.82;;
82147;SDS011;71718;50.480;12.110;2023-09-08T03:40:35;8.25;;;6.18;;
82147;SDS011;71718;50.480;12.110;2023-09-08T03:43:02;7.90;;;6.10;;
82147;SDS011;71718;50.480;12.110;2023-09-08T03:45:29;7.82;;;6.15;;
82147;SDS011;71718;50.480;12.110;2023-09-08T03:47:55;8.40;;;5.88;;
82147;SDS011;71718;50.480;12.110;2023-09-08T03:50:22;7.85;;;6.07;;
82147;SDS011;71718;50.480;12.110;2023-09-08T03:52:48;8.18;;;6.80;;
82147;SDS011;71718;50.480;12.110;2023-09-08T03:55:15;7.18;;;5.35;;
82147;SDS011;71718;50.480;12.110;2023-09-08T03:57:41;6.93;;;5.80;;
82147;SDS011;71718;50.480;12.110;2023-09-08T04:00:08;9.75;;;5.75;;
82147;SDS011;71718;50.480;12.110;2023-09-08T04:02:35;7.88;;;5.90;;
82147;SDS011;71718;50.480;12.110;2023-09-08T04:05:01;9.18;;;6.60;;
82147;SDS011;71718;50.480;12.110;2023-09-08T04:07:28;7.82;;;6.07;;
82147;SDS011;71718;50.480;12.110;2023-09-08T04:09:55;9.65;;;6.32;;
82147;SDS011;71718;50.480;12.110;2023-09-08T04:12:21;8.98;;;6.38;;
82147;SDS011;71718;50.480;12.110;2023-09-08T04:14:48;8.75;;;6.10;;
82147;SDS011;71718;50.480;12.110;2023-09-08T04:17:14;9.18;;;6.55;;
82147;SDS011;71718;50.480;12.110;2023-09-08T04:19:41;8.25;;;6.47;;
82147;SDS011;71718;50.480;12.110;2023-09-08T04:22:07;9.65;;;5.50;;
82147;SDS011;71718;50.480;12.110;2023-09-08T04:24:34;7.82;;;5.97;;
82147;SDS011;71718;50.480;12.110;2023-09-08T04:27:02;9.15;;;5.93;;
82147;SDS011;71718;50.480;12.110;2023-09-08T04:29:29;8.23;;;6.22;;
82147;SDS011;71718;50.480;12.110;2023-09-08T04:31:55;8.95;;;6.47;;
82147;SDS011;71718;50.480;12.110;2023-09-08T04:34:22;9.88;;;6.53;;
82147;SDS011;71718;50.480;12.110;2023-09-08T04:36:48;8.63;;;6.43;;
82147;SDS011;71718;50.480;12.110;2023-09-08T04:39:15;8.13;;;6.03;;
82147;SDS011;71718;50.480;12.110;2023-09-08T04:41:41;8.35;;;6.50;;
82147;SDS011;71718;50.480;12.110;2023-09-08T04:44:07;8.63;;;6.10;;
82147;SDS011;71718;50.480;12.110;2023-09-08T04:46:35;9.57;;;6.00;;
82147;SDS011;71718;50.480;12.110;2023-09-08T04:49:01;8.82;;;5.97;;
82147;SDS011;71718;50.480;12.110;2023-09-08T04:51:28;8.40;;;6.40;;
82147;SDS011;71718;50.480;12.110;2023-09-08T04:53:54;12.80;;;6.90;;
82147;SDS011;71718;50.480;12.110;2023-09-08T04:56:21;9.05;;;5.88;;
82147;SDS011;71718;50.480;12.110;2023-09-08T04:58:47;6.60;;;5.45;;
82147;SDS011;71718;50.480;12.110;2023-09-08T05:01:14;6.75;;;5.35;;
82147;SDS011;71718;50.480;12.110;2023-09-08T05:03:40;7.82;;;5.65;;
82147;SDS011;71718;50.480;12.110;2023-09-08T05:06:07;11.77;;;6.82;;
82147;SDS011;71718;50.480;12.110;2023-09-08T05:08:33;8.40;;;6.63;;
82147;SDS011;71718;50.480;12.110;2023-09-08T05:11:00;9.05;;;6.05;;
82147;SDS011;71718;50.480;12.110;2023-09-08T05:13:27;8.93;;;5.97;;
82147;SDS011;71718;50.480;12.110;2023-09-08T05:15:57;10.82;;;6.20;;
82147;SDS011;71718;50.480;12.110;2023-09-08T05:18:23;8.90;;;6.40;;
82147;SDS011;71718;50.480;12.110;2023-09-08T05:20:50;6.97;;;5.72;;
82147;SDS011;71718;50.480;12.110;2023-09-08T05:23:16;10.65;;;6.50;;
82147;SDS011;71718;50.480;12.110;2023-09-08T05:25:43;7.40;;;5.82;;
82147;SDS011;71718;50.480;12.110;2023-09-08T05:28:11;10.68;;;6.75;;
82147;SDS011;71718;50.480;12.110;2023-09-08T05:30:37;8.25;;;5.88;;
82147;SDS011;71718;50.480;12.110;2023-09-08T05:33:04;7.82;;;5.68;;
82147;SDS011;71718;50.480;12.110;2023-09-08T05:35:30;8.45;;;5.35;;
82147;SDS011;71718;50.480;12.110;2023-09-08T05:37:57;9.82;;;6.25;;
82147;SDS011;71718;50.480;12.110;2023-09-08T05:40:23;7.80;;;5.88;;
82147;SDS011;71718;50.480;12.110;2023-09-08T05:42:50;6.53;;;5.75;;
82147;SDS011;71718;50.480;12.110;2023-09-08T05:45:16;7.50;;;6.65;;
82147;SDS011;71718;50.480;12.110;2023-09-08T05:47:43;8.27;;;6.50;;
82147;SDS011;71718;50.480;12.110;2023-09-08T05:50:11;9.02;;;6.78;;
82147;SDS011;71718;50.480;12.110;2023-09-08T05:52:37;7.70;;;5.95;;
82147;SDS011;71718;50.480;12.110;2023-09-08T05:55:04;6.45;;;5.70;;
82147;SDS011;71718;50.480;12.110;2023-09-08T05:57:30;7.65;;;6.20;;
82147;SDS011;71718;50.480;12.110;2023-09-08T05:59:57;10.75;;;7.38;;
82147;SDS011;71718;50.480;12.110;2023-09-08T06:02:23;8.00;;;6.35;;
82147;SDS011;71718;50.480;12.110;2023-09-08T06:04:50;11.10;;;7.70;;
82147;SDS011;71718;50.480;12.110;2023-09-08T06:07:16;10.80;;;7.43;;
82147;SDS011;71718;50.480;12.110;2023-09-08T06:09:42;8.90;;;6.80;;
82147;SDS011;71718;50.480;12.110;2023-09-08T06:12:09;9.45;;;6.60;;
82147;SDS011;71718;50.480;12.110;2023-09-08T06:14:35;7.70;;;6.10;;
82147;SDS011;71718;50.480;12.110;2023-09-08T06:17:02;9.25;;;7.40;;
82147;SDS011;71718;50.480;12.110;2023-09-08T06:19:29;9.30;;;7.40;;
82147;SDS011;71718;50.480;12.110;2023-09-08T06:21:55;8.88;;;6.90;;
82147;SDS011;71718;50.480;12.110;2023-09-08T06:24:22;10.50;;;7.05;;
82147;SDS011;71718;50.480;12.110;2023-09-08T06:26:48;9.43;;;7.32;;
82147;SDS011;71718;50.480;12.110;2023-09-08T06:29:15;9.48;;;6.78;;
82147;SDS011;71718;50.480;12.110;2023-09-08T06:31:41;9.00;;;6.63;;
82147;SDS011;71718;50.480;12.110;2023-09-08T06:34:08;10.35;;;7.43;;
82147;SDS011;71718;50.480;12.110;2023-09-08T06:36:34;8.52;;;6.72;;
82147;SDS011;71718;50.480;12.110;2023-09-08T06:39:01;8.85;;;7.07;;
82147;SDS011;71718;50.480;12.110;2023-09-08T06:41:28;10.73;;;7.57;;
82147;SDS011;71718;50.480;12.110;2023-09-08T06:43:54;8.15;;;6.60;;
82147;SDS011;71718;50.480;12.110;2023-09-08T06:46:22;9.60;;;7.38;;
82147;SDS011;71718;50.480;12.110;2023-09-08T06:48:49;10.98;;;7.10;;
82147;SDS011;71718;50.480;12.110;2023-09-08T06:51:15;10.27;;;7.70;;
82147;SDS011;71718;50.480;12.110;2023-09-08T06:53:43;9.48;;;7.05;;
82147;SDS011;71718;50.480;12.110;2023-09-08T06:56:10;9.23;;;6.55;;
82147;SDS011;71718;50.480;12.110;2023-09-08T06:58:36;9.75;;;6.43;;
82147;SDS011;71718;50.480;12.110;2023-09-08T07:01:03;9.52;;;7.13;;
82147;SDS011;71718;50.480;12.110;2023-09-08T07:03:29;8.52;;;6.53;;
82147;SDS011;71718;50.480;12.110;2023-09-08T07:05:56;9.25;;;7.32;;
82147;SDS011;71718;50.480;12.110;2023-09-08T07:08:23;8.70;;;6.78;;
82147;SDS011;71718;50.480;12.110;2023-09-08T07:10:51;9.00;;;6.43;;
82147;SDS011;71718;50.480;12.110;2023-09-08T07:13:18;11.15;;;7.15;;
82147;SDS011;71718;50.480;12.110;2023-09-08T07:15:45;11.13;;;7.57;;
82147;SDS011;71718;50.480;12.110;2023-09-08T07:18:11;8.40;;;6.28;;
82147;SDS011;71718;50.480;12.110;2023-09-08T07:20:38;11.45;;;7.35;;
82147;SDS011;71718;50.480;12.110;2023-09-08T07:23:05;9.02;;;6.53;;
82147;SDS011;71718;50.480;12.110;2023-09-08T07:25:32;7.53;;;6.20;;
82147;SDS011;71718;50.480;12.110;2023-09-08T07:27:59;10.18;;;6.88;;
82147;SDS011;71718;50.480;12.110;2023-09-08T07:30:26;8.77;;;6.75;;
82147;SDS011;71718;50.480;12.110;2023-09-08T07:32:52;9.13;;;6.03;;
82147;SDS011;71718;50.480;12.110;2023-09-08T07:35:19;8.68;;;6.63;;
82147;SDS011;71718;50.480;12.110;2023-09-08T07:37:45;9.15;;;7.20;;
82147;SDS011;71718;50.480;12.110;2023-09-08T07:40:12;9.98;;;7.00;;
82147;SDS011;71718;50.480;12.110;2023-09-08T07:42:38;12.55;;;7.07;;
82147;SDS011;71718;50.480;12.110;2023-09-08T07:45:05;8.73;;;6.45;;
82147;SDS011;71718;50.480;12.110;2023-09-08T07:47:32;7.97;;;6.75;;
82147;SDS011;71718;50.480;12.110;2023-09-08T07:50:18;8.98;;;6.13;;
82147;SDS011;71718;50.480;12.110;2023-09-08T07:52:50;8.40;;;6.15;;
82147;SDS011;71718;50.480;12.110;2023-09-08T07:55:17;12.45;;;6.43;;
82147;SDS011;71718;50.480;12.110;2023-09-08T07:57:45;8.10;;;6.13;;
82147;SDS011;71718;50.480;12.110;2023-09-08T08:00:12;9.00;;;6.35;;
82147;SDS011;71718;50.480;12.110;2023-09-08T08:02:44;9.18;;;6.57;;
82147;SDS011;71718;50.480;12.110;2023-09-08T08:05:12;6.03;;;4.90;;
82147;SDS011;71718;50.480;12.110;2023-09-08T08:07:39;8.88;;;5.70;;
82147;SDS011;71718;50.480;12.110;2023-09-08T08:10:06;8.35;;;5.07;;
82147;SDS011;71718;50.480;12.110;2023-09-08T08:12:33;8.70;;;5.38;;
82147;SDS011;71718;50.480;12.110;2023-09-08T08:15:00;8.40;;;5.63;;
82147;SDS011;71718;50.480;12.110;2023-09-08T08:17:26;6.80;;;5.20;;
82147;SDS011;71718;50.480;12.110;2023-09-08T08:19:54;7.70;;;5.35;;
82147;SDS011;71718;50.480;12.110;2023-09-08T08:22:20;8.05;;;4.90;;
82147;SDS011;71718;50.480;12.110;2023-09-08T08:24:48;5.72;;;4.85;;
82147;SDS011;71718;50.480;12.110;2023-09-08T08:27:14;7.40;;;5.45;;
82147;SDS011;71718;50.480;12.110;2023-09-08T08:29:41;6.90;;;5.00;;
82147;SDS011;71718;50.480;12.110;2023-09-08T08:32:07;8.68;;;4.93;;
82147;SDS011;71718;50.480;12.110;2023-09-08T08:34:34;7.65;;;5.47;;
82147;SDS011;71718;50.480;12.110;2023-09-08T08:37:00;8.80;;;5.13;;
82147;SDS011;71718;50.480;12.110;2023-09-08T08:39:27;6.88;;;4.63;;
82147;SDS011;71718;50.480;12.110;2023-09-08T08:41:54;7.45;;;5.10;;
82147;SDS011;71718;50.480;12.110;2023-09-08T08:44:20;7.90;;;4.97;;
82147;SDS011;71718;50.480;12.110;2023-09-08T08:46:48;6.32;;;5.03;;
82147;SDS011;71718;50.480;12.110;2023-09-08T08:49:15;6.53;;;5.22;;
82147;SDS011;71718;50.480;12.110;2023-09-08T08:51:44;6.05;;;5.20;;
82147;SDS011;71718;50.480;12.110;2023-09-08T08:54:12;7.43;;;4.90;;
82147;SDS011;71718;50.480;12.110;2023-09-08T08:56:40;5.35;;;4.63;;
82147;SDS011;71718;50.480;12.110;2023-09-08T08:59:07;6.90;;;4.82;;
82147;SDS011;71718;50.480;12.110;2023-09-08T09:01:35;5.97;;;4.82;;
82147;SDS011;71718;50.480;12.110;2023-09-08T09:04:04;7.72;;;5.20;;
82147;SDS011;71718;50.480;12.110;2023-09-08T09:06:31;8.05;;;4.72;;
82147;SDS011;71718;50.480;12.110;2023-09-08T09:08:58;5.95;;;4.60;;
82147;SDS011;71718;50.480;12.110;2023-09-08T09:11:26;7.28;;;4.68;;
82147;SDS011;71718;50.480;12.110;2023-09-08T09:13:52;9.35;;;5.00;;
82147;SDS011;71718;50.480;12.110;2023-09-08T09:16:19;7.50;;;4.43;;
82147;SDS011;71718;50.480;12.110;2023-09-08T09:18:55;6.78;;;5.30;;
82147;SDS011;71718;50.480;12.110;2023-09-08T09:21:47;6.28;;;4.68;;
82147;SDS011;71718;50.480;12.110;2023-09-08T09:24:16;5.82;;;5.03;;
82147;SDS011;71718;50.480;12.110;2023-09-08T09:26:46;6.43;;;5.03;;
82147;SDS011;71718;50.480;12.110;2023-09-08T09:29:17;6.68;;;5.13;;
82147;SDS011;71718;50.480;12.110;2023-09-08T09:31:50;6.30;;;4.70;;
82147;SDS011;71718;50.480;12.110;2023-09-08T09:34:51;8.25;;;4.80;;
82147;SDS011;71718;50.480;12.110;2023-09-08T09:37:19;12.18;;;9.77;;
82147;SDS011;71718;50.480;12.110;2023-09-08T09:39:50;7.05;;;5.03;;
82147;SDS011;71718;50.480;12.110;2023-09-08T09:42:17;7.85;;;5.50;;
82147;SDS011;71718;50.480;12.110;2023-09-08T09:44:44;9.65;;;5.57;;
82147;SDS011;71718;50.480;12.110;2023-09-08T09:49:43;7.35;;;5.00;;
82147;SDS011;71718;50.480;12.110;2023-09-08T09:52:19;6.75;;;5.20;;
82147;SDS011;71718;50.480;12.110;2023-09-08T09:54:47;6.22;;;4.57;;
82147;SDS011;71718;50.480;12.110;2023-09-08T09:57:15;6.90;;;4.70;;
82147;SDS011;71718;50.480;12.110;2023-09-08T09:59:42;5.40;;;4.57;;
82147;SDS011;71718;50.480;12.110;2023-09-08T10:02:12;7.20;;;4.95;;
82147;SDS011;71718;50.480;12.110;2023-09-08T10:04:40;6.15;;;4.47;;
82147;SDS011;71718;50.480;12.110;2023-09-08T10:07:10;5.82;;;4.95;;
82147;SDS011;71718;50.480;12.110;2023-09-08T10:09:36;5.10;;;4.60;;
82147;SDS011;71718;50.480;12.110;2023-09-08T10:12:04;8.38;;;4.65;;
82147;SDS011;71718;50.480;12.110;2023-09-08T10:14:32;5.95;;;5.07;;
82147;SDS011;71718;50.480;12.110;2023-09-08T10:17:02;5.57;;;4.60;;
82147;SDS011;71718;50.480;12.110;2023-09-08T10:19:32;5.47;;;4.55;;
82147;SDS011;71718;50.480;12.110;2023-09-08T10:22:00;5.57;;;4.93;;
82147;SDS011;71718;50.480;12.110;2023-09-08T10:24:32;8.07;;;5.28;;
82147;SDS011;71718;50.480;12.110;2023-09-08T10:27:02;5.47;;;4.93;;
82147;SDS011;71718;50.480;12.110;2023-09-08T10:29:33;6.72;;;4.55;;
82147;SDS011;71718;50.480;12.110;2023-09-08T10:32:01;6.38;;;5.55;;
82147;SDS011;71718;50.480;12.110;2023-09-08T10:34:30;6.75;;;4.93;;
82147;SDS011;71718;50.480;12.110;2023-09-08T10:36:58;6.13;;;5.10;;
82147;SDS011;71718;50.480;12.110;2023-09-08T10:39:35;6.15;;;4.93;;
82147;SDS011;71718;50.480;12.110;2023-09-08T10:47:16;7.65;;;5.18;;
82147;SDS011;71718;50.480;12.110;2023-09-08T10:49:56;5.53;;;4.60;;
82147;SDS011;71718;50.480;12.110;2023-09-08T10:52:25;6.95;;;5.10;;
82147;SDS011;71718;50.480;12.110;2023-09-08T10:54:53;6.90;;;4.97;;
82147;SDS011;71718;50.480;12.110;2023-09-08T10:57:23;7.63;;;5.20;;
82147;SDS011;71718;50.480;12.110;2023-09-08T11:05:16;5.38;;;4.55;;
82147;SDS011;71718;50.480;12.110;2023-09-08T11:07:43;5.75;;;4.68;;
82147;SDS011;71718;50.480;12.110;2023-09-08T11:10:12;6.03;;;4.95;;
82147;SDS011;71718;50.480;12.110;2023-09-08T11:12:42;5.28;;;4.78;;
82147;SDS011;71718;50.480;12.110;2023-09-08T11:15:08;6.07;;;4.57;;
82147;SDS011;71718;50.480;12.110;2023-09-08T11:17:36;8.18;;;4.68;;
82147;SDS011;71718;50.480;12.110;2023-09-08T11:20:04;6.00;;;4.50;;
82147;SDS011;71718;50.480;12.110;2023-09-08T11:22:31;6.82;;;5.50;;
82147;SDS011;71718;50.480;12.110;2023-09-08T11:24:58;5.35;;;4.82;;
82147;SDS011;71718;50.480;12.110;2023-09-08T11:27:25;8.20;;;5.15;;
82147;SDS011;71718;50.480;12.110;2023-09-08T11:29:55;8.75;;;5.15;;
82147;SDS011;71718;50.480;12.110;2023-09-08T11:32:22;6.05;;;4.85;;
82147;SDS011;71718;50.480;12.110;2023-09-08T11:34:48;5.85;;;5.15;;
82147;SDS011;71718;50.480;12.110;2023-09-08T11:37:16;5.10;;;4.45;;
82147;SDS011;71718;50.480;12.110;2023-09-08T11:39:44;6.13;;;5.10;;
82147;SDS011;71718;50.480;12.110;2023-09-08T11:42:12;6.28;;;4.40;;
82147;SDS011;71718;50.480;12.110;2023-09-08T11:44:40;7.75;;;4.65;;
82147;SDS011;71718;50.480;12.110;2023-09-08T11:47:08;6.00;;;4.55;;
82147;SDS011;71718;50.480;12.110;2023-09-08T11:49:36;6.53;;;5.03;;
82147;SDS011;71718;50.480;12.110;2023-09-08T11:52:04;7.68;;;5.90;;
82147;SDS011;71718;50.480;12.110;2023-09-08T11:54:31;6.38;;;4.88;;
82147;SDS011;71718;50.480;12.110;2023-09-08T11:56:59;5.07;;;4.28;;
82147;SDS011;71718;50.480;12.110;2023-09-08T11:59:28;5.47;;;4.57;;
82147;SDS011;71718;50.480;12.110;2023-09-08T12:01:57;8.00;;;5.07;;
82147;SDS011;71718;50.480;12.110;2023-09-08T12:04:24;5.63;;;5.03;;
82147;SDS011;71718;50.480;12.110;2023-09-08T12:06:51;6.88;;;5.07;;
82147;SDS011;71718;50.480;12.110;2023-09-08T12:09:22;7.05;;;4.90;;
82147;SDS011;71718;50.480;12.110;2023-09-08T12:11:49;5.47;;;4.60;;
82147;SDS011;71718;50.480;12.110;2023-09-08T12:14:16;8.02;;;4.88;;
82147;SDS011;71718;50.480;12.110;2023-09-08T12:16:42;6.68;;;4.85;;
82147;SDS011;71718;50.480;12.110;2023-09-08T12:21:56;6.22;;;4.78;;
82147;SDS011;71718;50.480;12.110;2023-09-08T12:27:16;8.25;;;4.82;;
82147;SDS011;71718;50.480;12.110;2023-09-08T12:29:59;5.72;;;4.97;;
82147;SDS011;71718;50.480;12.110;2023-09-08T12:32:28;6.35;;;5.00;;
82147;SDS011;71718;50.480;12.110;2023-09-08T12:34:56;6.38;;;4.72;;
82147;SDS011;71718;50.480;12.110;2023-09-08T12:37:22;6.30;;;4.47;;
82147;SDS011;71718;50.480;12.110;2023-09-08T12:39:50;6.22;;;4.10;;
82147;SDS011;71718;50.480;12.110;2023-09-08T12:42:17;5.28;;;4.30;;
82147;SDS011;71718;50.480;12.110;2023-09-08T12:44:44;6.00;;;4.72;;
82147;SDS011;71718;50.480;12.110;2023-09-08T12:47:11;5.28;;;4.75;;
82147;SDS011;71718;50.480;12.110;2023-09-08T12:49:38;6.15;;;4.70;;
82147;SDS011;71718;50.480;12.110;2023-09-08T12:52:06;5.03;;;4.30;;
82147;SDS011;71718;50.480;12.110;2023-09-08T12:54:32;5.75;;;4.82;;
82147;SDS011;71718;50.480;12.110;2023-09-08T12:56:59;6.28;;;4.53;;
82147;SDS011;71718;50.480;12.110;2023-09-08T12:59:26;6.20;;;4.38;;
82147;SDS011;71718;50.480;12.110;2023-09-08T13:01:52;6.05;;;5.05;;
82147;SDS011;71718;50.480;12.110;2023-09-08T13:04:19;6.05;;;4.88;;
82147;SDS011;71718;50.480;12.110;2023-09-08T13:06:46;7.82;;;4.90;;
82147;SDS011;71718;50.480;12.110;2023-09-08T13:09:12;4.43;;;3.95;;
82147;SDS011;71718;50.480;12.110;2023-09-08T13:11:39;4.75;;;4.00;;
82147;SDS011;71718;50.480;12.110;2023-09-08T13:14:05;5.55;;;4.60;;
82147;SDS011;71718;50.480;12.110;2023-09-08T13:16:32;6.75;;;4.55;;
82147;SDS011;71718;50.480;12.110;2023-09-08T13:18:59;6.35;;;4.60;;
82147;SDS011;71718;50.480;12.110;2023-09-08T13:21:29;4.72;;;4.15;;
82147;SDS011;71718;50.480;12.110;2023-09-08T13:23:56;5.95;;;4.72;;
82147;SDS011;71718;50.480;12.110;2023-09-08T13:26:23;7.65;;;5.03;;
82147;SDS011;71718;50.480;12.110;2023-09-08T13:28:49;6.38;;;4.40;;
82147;SDS011;71718;50.480;12.110;2023-09-08T13:31:16;8.15;;;4.60;;
82147;SDS011;71718;50.480;12.110;2023-09-08T13:33:42;5.65;;;4.65;;
82147;SDS011;71718;50.480;12.110;2023-09-08T13:36:09;5.78;;;4.43;;
82147;SDS011;71718;50.480;12.110;2023-09-08T13:38:35;6.13;;;4.68;;
82147;SDS011;71718;50.480;12.110;2023-09-08T13:41:03;8.25;;;4.60;;
82147;SDS011;71718;50.480;12.110;2023-09-08T13:43:29;4.70;;;4.05;;
82147;SDS011;71718;50.480;12.110;2023-09-08T13:45:56;5.57;;;4.30;;
82147;SDS011;71718;50.480;12.110;2023-09-08T13:48:22;5.47;;;4.70;;
82147;SDS011;71718;50.480;12.110;2023-09-08T13:50:49;5.68;;;4.38;;
82147;SDS011;71718;50.480;12.110;2023-09-08T13:53:16;5.35;;;4.03;;
82147;SDS011;71718;50.480;12.110;2023-09-08T13:55:46;7.18;;;4.40;;
82147;SDS011;71718;50.480;12.110;2023-09-08T13:58:16;6.95;;;4.40;;
82147;SDS011;71718;50.480;12.110;2023-09-08T14:03:18;8.85;;;4.72;;
82147;SDS011;71718;50.480;12.110;2023-09-08T14:05:49;7.07;;;4.72;;
82147;SDS011;71718;50.480;12.110;2023-09-08T14:08:20;6.65;;;4.50;;
82147;SDS011;71718;50.480;12.110;2023-09-08T14:11:06;5.32;;;4.80;;
82147;SDS011;71718;50.480;12.110;2023-09-08T14:13:45;5.90;;;4.60;;
82147;SDS011;71718;50.480;12.110;2023-09-08T14:16:12;5.97;;;4.40;;
82147;SDS011;71718;50.480;12.110;2023-09-08T14:18:39;8.35;;;4.22;;
82147;SDS011;71718;50.480;12.110;2023-09-08T14:21:06;7.45;;;4.65;;
82147;SDS011;71718;50.480;12.110;2023-09-08T14:23:33;5.35;;;4.63;;
82147;SDS011;71718;50.480;12.110;2023-09-08T14:26:00;4.90;;;4.32;;
82147;SDS011;71718;50.480;12.110;2023-09-08T14:28:27;6.43;;;4.50;;
82147;SDS011;71718;50.480;12.110;2023-09-08T14:30:53;6.72;;;5.05;;
82147;SDS011;71718;50.480;12.110;2023-09-08T14:33:20;6.32;;;4.47;;
82147;SDS011;71718;50.480;12.110;2023-09-08T14:35:47;5.18;;;4.43;;
82147;SDS011;71718;50.480;12.110;2023-09-08T14:38:13;6.63;;;4.53;;
82147;SDS011;71718;50.480;12.110;2023-09-08T14:40:40;5.15;;;4.03;;
82147;SDS011;71718;50.480;12.110;2023-09-08T14:43:06;7.50;;;4.68;;
82147;SDS011;71718;50.480;12.110;2023-09-08T14:45:32;5.97;;;4.45;;
82147;SDS011;71718;50.480;12.110;2023-09-08T14:47:59;8.20;;;4.65;;
82147;SDS011;71718;50.480;12.110;2023-09-08T14:50:27;5.45;;;4.80;;
82147;SDS011;71718;50.480;12.110;2023-09-08T14:52:53;6.13;;;4.40;;
82147;SDS011;71718;50.480;12.110;2023-09-08T14:55:20;4.85;;;4.00;;
82147;SDS011;71718;50.480;12.110;2023-09-08T14:57:46;7.35;;;4.28;;
82147;SDS011;71718;50.480;12.110;2023-09-08T15:00:13;6.00;;;4.35;;
82147;SDS011;71718;50.480;12.110;2023-09-08T15:02:40;5.22;;;4.47;;
82147;SDS011;71718;50.480;12.110;2023-09-08T15:05:06;5.82;;;4.93;;
82147;SDS011;71718;50.480;12.110;2023-09-08T15:07:33;5.82;;;4.53;;